sensor_id;sensor_type;location;lat;lon;timestamp;pressure;altitude;pressure_sealevel;temperature;humidity
48029;BME280;33808;37.368;127.108;2023-02-28T06:51:13;100985.50;;;29.61;nan
48029;BME280;33808;37.368;127.108;2023-02-28T06:53:43;100977.75;;;29.66;nan
48029;BME280;33808;37.368;127.108;2023-02-28T06:56:13;100980.81;;;29.63;nan
48029;BME280;33808;37.368;127.108;2023-02-28T06:58:45;100979.09;;;29.71;nan
48029;BME280;33808;37.368;127.108;2023-02-28T07:01:51;100985.53;;;29.78;nan
48029;BME280;33808;37.368;127.108;2023-02-28T07:04:35;100872.38;;;28.96;nan
48029;BME280;33808;37.368;127.108;2023-02-28T07:07:04;100981.53;;;29.82;nan
48029;BME280;33808;37.368;127.108;2023-02-28T07:09:33;100843.63;;;28.96;nan
48029;BME280;33808;37.368;127.108;2023-02-28T07:12:41;100816.22;;;28.92;nan
48029;BME280;33808;37.368;127.108;2023-02-28T07:15:57;100992.25;;;29.98;nan
48029;BME280;33808;37.368;127.108;2023-02-28T07:19:04;100983.84;;;30.01;nan
48029;BME280;33808;37.368;127.108;2023-02-28T07:22:13;100979.28;;;30.02;nan
48029;BME280;33808;37.368;127.108;2023-02-28T07:24:42;100987.06;;;29.97;nan
48029;BME280;33808;37.368;127.108;2023-02-28T07:27:11;101002.38;;;30.04;nan
48029;BME280;33808;37.368;127.108;2023-02-28T07:29:40;100974.59;;;30.04;nan
48029;BME280;33808;37.368;127.108;2023-02-28T07:32:09;100977.97;;;30.06;nan
48029;BME280;33808;37.368;127.108;2023-02-28T07:34:38;100970.72;;;30.06;nan
48029;BME280;33808;37.368;127.108;2023-02-28T07:37:46;100964.28;;;30.07;nan
48029;BME280;33808;37.368;127.108;2023-02-28T07:40:58;100905.72;;;29.68;nan
48029;BME280;33808;37.368;127.108;2023-02-28T07:44:06;100829.72;;;29.25;nan
48029;BME280;33808;37.368;127.108;2023-02-28T07:46:35;100967.31;;;30.13;nan
48029;BME280;33808;37.368;127.108;2023-02-28T07:51:34;100959.91;;;30.15;nan
48029;BME280;33808;37.368;127.108;2023-02-28T07:54:03;100848.88;;;29.30;nan
48029;BME280;33808;37.368;127.108;2023-02-28T07:57:12;100923.59;;;29.78;nan
48029;BME280;33808;37.368;127.108;2023-02-28T07:59:47;100966.31;;;30.14;nan
48029;BME280;33808;37.368;127.108;2023-02-28T08:02:17;100958.25;;;30.14;nan
48029;BME280;33808;37.368;127.108;2023-02-28T08:04:46;100958.91;;;30.07;nan
48029;BME280;33808;37.368;127.108;2023-02-28T08:07:17;100959.75;;;30.08;nan
48029;BME280;33808;37.368;127.108;2023-02-28T08:09:46;100950.00;;;29.99;nan
48029;BME280;33808;37.368;127.108;2023-02-28T08:12:54;100959.94;;;29.98;nan
48029;BME280;33808;37.368;127.108;2023-02-28T08:16:03;100961.63;;;29.99;nan
48029;BME280;33808;37.368;127.108;2023-02-28T08:24:28;100959.25;;;29.96;nan
48029;BME280;33808;37.368;127.108;2023-02-28T08:26:57;100954.91;;;29.95;nan
48029;BME280;33808;37.368;127.108;2023-02-28T08:30:06;100953.19;;;29.94;nan
48029;BME280;33808;37.368;127.108;2023-02-28T08:32:35;100958.09;;;29.91;nan
48029;BME280;33808;37.368;127.108;2023-02-28T08:35:43;100950.19;;;29.81;nan
48029;BME280;33808;37.368;127.108;2023-02-28T08:38:52;100950.88;;;29.75;nan
48029;BME280;33808;37.368;127.108;2023-02-28T08:42:00;100946.50;;;29.74;nan
48029;BME280;33808;37.368;127.108;2023-02-28T08:45:09;100955.91;;;29.69;nan
48029;BME280;33808;37.368;127.108;2023-02-28T08:48:17;100963.31;;;29.76;nan
48029;BME280;33808;37.368;127.108;2023-02-28T08:54:15;100966.84;;;29.68;nan
48029;BME280;33808;37.368;127.108;2023-02-28T08:57:23;100970.34;;;29.68;nan
48029;BME280;33808;37.368;127.108;2023-02-28T09:00:32;100967.34;;;29.63;nan
48029;BME280;33808;37.368;127.108;2023-02-28T09:03:41;100962.28;;;29.60;nan
48029;BME280;33808;37.368;127.108;2023-02-28T09:06:51;100968.34;;;29.54;nan
48029;BME280;33808;37.368;127.108;2023-02-28T09:09:59;100965.31;;;29.49;nan
48029;BME280;33808;37.368;127.108;2023-02-28T09:13:07;100958.41;;;29.55;nan
48029;BME280;33808;37.368;127.108;2023-02-28T09:16:16;100966.00;;;29.43;nan
48029;BME280;33808;37.368;127.108;2023-02-28T09:19:24;100979.63;;;29.41;nan
48029;BME280;33808;37.368;127.108;2023-02-28T09:22:33;100836.88;;;28.33;nan
48029;BME280;33808;37.368;127.108;2023-02-28T09:28:36;100976.06;;;29.33;nan
48029;BME280;33808;37.368;127.108;2023-02-28T09:31:44;100999.41;;;29.24;nan
48029;BME280;33808;37.368;127.108;2023-02-28T09:34:53;100985.13;;;29.15;nan
48029;BME280;33808;37.368;127.108;2023-02-28T09:38:01;100983.53;;;29.04;nan
48029;BME280;33808;37.368;127.108;2023-02-28T09:41:11;100982.16;;;29.00;nan
48029;BME280;33808;37.368;127.108;2023-02-28T09:43:44;100988.34;;;28.92;nan
48029;BME280;33808;37.368;127.108;2023-02-28T09:46:51;100992.38;;;28.80;nan
48029;BME280;33808;37.368;127.108;2023-02-28T09:49:24;100928.94;;;28.35;nan
48029;BME280;33808;37.368;127.108;2023-02-28T09:52:10;100988.94;;;28.70;nan
48029;BME280;33808;37.368;127.108;2023-02-28T09:55:27;100986.75;;;28.65;nan
48029;BME280;33808;37.368;127.108;2023-02-28T09:58:42;100966.25;;;28.64;nan
48029;BME280;33808;37.368;127.108;2023-02-28T10:08:01;101015.03;;;28.51;nan
48029;BME280;33808;37.368;127.108;2023-02-28T10:10:49;101000.91;;;28.49;nan
48029;BME280;33808;37.368;127.108;2023-02-28T10:14:14;101006.13;;;28.51;nan
48029;BME280;33808;37.368;127.108;2023-02-28T10:17:22;101009.53;;;28.53;nan
48029;BME280;33808;37.368;127.108;2023-02-28T10:20:37;100900.28;;;27.65;nan
48029;BME280;33808;37.368;127.108;2023-02-28T10:23:43;101024.72;;;28.44;nan
48029;BME280;33808;37.368;127.108;2023-02-28T10:26:52;101015.69;;;28.45;nan
48029;BME280;33808;37.368;127.108;2023-02-28T10:30:01;101015.47;;;28.39;nan
48029;BME280;33808;37.368;127.108;2023-02-28T10:32:52;100924.72;;;27.80;nan
